createdAt,value
2023-03-03T00:02:07.193Z,42.65
2023-03-03T00:04:37.036Z,49.20
2023-03-03T00:07:06.998Z,49.33
2023-03-03T00:09:36.847Z,45.47
2023-03-03T00:12:16.629Z,46.67
2023-03-03T00:14:46.269Z,48.60
2023-03-03T00:17:19.114Z,50.03
2023-03-03T00:19:52.348Z,51.73
2023-03-03T00:22:33.973Z,47.97
2023-03-03T00:25:09.481Z,44.80
2023-03-03T00:27:39.254Z,45.73
2023-03-03T00:30:20.152Z,45.80
2023-03-03T00:32:51.712Z,41.83
2023-03-03T00:35:38.444Z,47.78
2023-03-03T00:38:15.292Z,45.80
2023-03-03T00:40:46.093Z,47.40
2023-03-03T00:43:28.921Z,43.57
2023-03-03T00:45:59.421Z,45.17
2023-03-03T00:48:34.888Z,48.67
2023-03-03T00:51:13.047Z,44.03
2023-03-03T00:53:42.906Z,45.40
2023-03-03T00:56:12.657Z,46.90
2023-03-03T00:58:44.159Z,42.07
2023-03-03T01:01:15.263Z,47.83
2023-03-03T01:03:46.800Z,42.63
2023-03-03T01:06:17.788Z,47.90
2023-03-03T01:08:47.550Z,47.23
2023-03-03T01:11:20.363Z,47.37
2023-03-03T01:13:53.036Z,44.25
2023-03-03T01:16:22.934Z,43.10
2023-03-03T01:18:53.043Z,39.00
2023-03-03T01:21:23.474Z,42.27
2023-03-03T01:23:53.372Z,43.67
2023-03-03T01:26:23.141Z,42.93
2023-03-03T01:28:53.461Z,40.25
2023-03-03T01:31:23.445Z,37.53
2023-03-03T01:33:53.541Z,42.62
2023-03-03T01:36:30.283Z,41.60
2023-03-03T01:39:00.487Z,39.10
2023-03-03T01:41:33.462Z,39.67
2023-03-03T01:44:03.710Z,42.93
2023-03-03T01:46:54.580Z,39.07
2023-03-03T01:49:36.373Z,41.93
2023-03-03T01:52:27.900Z,39.88
2023-03-03T01:55:00.809Z,40.23
2023-03-03T01:57:36.228Z,38.33
2023-03-03T02:00:09.414Z,41.80
2023-03-03T02:02:46.148Z,39.00
2023-03-03T02:05:17.313Z,39.80
2023-03-03T02:07:47.700Z,39.43
2023-03-03T02:10:19.944Z,39.80
2023-03-03T02:12:57.089Z,36.20
2023-03-03T02:15:32.288Z,38.00
2023-03-03T02:18:04.896Z,36.73
2023-03-03T02:20:53.959Z,36.03
2023-03-03T02:23:33.029Z,41.25
2023-03-03T02:26:13.884Z,40.47
2023-03-03T02:28:44.023Z,39.67
2023-03-03T02:31:17.748Z,41.02
2023-03-03T02:33:50.178Z,34.90
2023-03-03T02:36:22.697Z,38.70
2023-03-03T02:39:13.379Z,38.50
2023-03-03T02:42:06.894Z,39.53
2023-03-03T02:44:44.089Z,40.63
2023-03-03T02:47:13.820Z,33.53
2023-03-03T02:49:43.696Z,41.93
2023-03-03T02:52:15.025Z,41.20
2023-03-03T02:54:46.838Z,37.30
2023-03-03T02:57:17.095Z,38.87
2023-03-03T02:59:46.953Z,39.53
2023-03-03T03:02:19.374Z,37.17
2023-03-03T03:04:49.530Z,35.17
2023-03-03T03:07:21.030Z,40.63
2023-03-03T03:09:51.201Z,37.90
2023-03-03T03:12:21.758Z,39.75
2023-03-03T03:14:53.325Z,41.13
2023-03-03T03:17:23.247Z,40.23
2023-03-03T03:19:53.520Z,40.83
2023-03-03T03:22:23.543Z,43.00
2023-03-03T03:24:53.198Z,40.50
2023-03-03T03:27:23.423Z,39.57
2023-03-03T03:29:53.681Z,40.80
2023-03-03T03:32:24.548Z,40.73
2023-03-03T03:34:54.596Z,43.67
2023-03-03T03:37:24.671Z,40.57
2023-03-03T03:39:54.308Z,38.02
2023-03-03T03:42:26.427Z,42.15
2023-03-03T03:44:56.551Z,47.78
2023-03-03T03:47:26.506Z,46.00
2023-03-03T03:49:57.145Z,43.68
2023-03-03T03:52:27.005Z,44.13
2023-03-03T03:54:56.944Z,40.60
2023-03-03T03:57:26.821Z,43.80
2023-03-03T03:59:56.679Z,43.27
2023-03-03T04:02:26.868Z,47.37
2023-03-03T04:04:56.852Z,46.10
2023-03-03T04:07:26.941Z,49.13
2023-03-03T04:09:57.064Z,43.93
2023-03-03T04:12:26.940Z,45.60
2023-03-03T04:14:58.870Z,44.65
2023-03-03T04:17:28.913Z,47.70
2023-03-03T04:19:59.093Z,50.90
2023-03-03T04:22:32.150Z,46.93
2023-03-03T04:25:05.089Z,48.20
2023-03-03T04:27:37.928Z,45.93
2023-03-03T04:30:10.172Z,43.43
2023-03-03T04:32:40.429Z,48.37
2023-03-03T04:35:12.422Z,50.60
2023-03-03T04:37:43.477Z,46.07
2023-03-03T04:40:14.947Z,52.23
2023-03-03T04:42:44.995Z,44.83
2023-03-03T04:45:15.300Z,47.95
2023-03-03T04:47:46.800Z,42.53
2023-03-03T04:50:16.961Z,50.33
2023-03-03T04:52:46.784Z,46.33
2023-03-03T04:55:17.027Z,46.37
2023-03-03T04:57:48.984Z,45.28
2023-03-03T05:00:19.873Z,48.50
2023-03-03T05:02:50.247Z,42.88
2023-03-03T05:05:20.104Z,44.15
2023-03-03T05:07:50.034Z,42.47
2023-03-03T05:10:22.736Z,44.83
2023-03-03T05:12:52.480Z,45.67
2023-03-03T05:15:22.368Z,44.37
2023-03-03T05:17:54.977Z,47.05
2023-03-03T05:20:25.865Z,45.38
2023-03-03T05:22:57.338Z,45.40
2023-03-03T05:25:27.206Z,49.63
2023-03-03T05:27:57.145Z,43.13
2023-03-03T05:30:27.026Z,42.30
2023-03-03T05:32:58.470Z,43.07
2023-03-03T05:35:31.609Z,44.38
2023-03-03T05:38:03.204Z,44.23
2023-03-03T05:40:33.437Z,45.78
2023-03-03T05:43:04.748Z,41.37
2023-03-03T05:45:35.302Z,42.50
2023-03-03T05:48:05.375Z,46.40
2023-03-03T05:50:35.052Z,46.63
2023-03-03T05:53:06.736Z,47.00
2023-03-03T05:55:38.156Z,46.25
2023-03-03T05:58:09.311Z,49.57
2023-03-03T06:00:39.492Z,48.33
2023-03-03T06:03:09.381Z,52.33
2023-03-03T06:05:39.311Z,45.57
2023-03-03T06:08:11.589Z,51.05
2023-03-03T06:10:41.773Z,44.80
2023-03-03T06:13:12.090Z,50.53
2023-03-03T06:15:42.007Z,45.87
2023-03-03T06:18:13.936Z,52.83
2023-03-03T06:20:43.897Z,46.27
2023-03-03T06:23:14.061Z,41.50
2023-03-03T06:25:44.561Z,46.63
2023-03-03T06:28:15.125Z,48.87
2023-03-03T06:30:44.928Z,48.53
2023-03-03T06:33:14.702Z,47.23
2023-03-03T06:35:44.606Z,55.67
2023-03-03T06:38:14.200Z,42.77
2023-03-03T06:40:44.021Z,56.80
2023-03-03T06:43:14.185Z,49.20
2023-03-03T06:45:46.059Z,49.63
2023-03-03T06:48:16.176Z,46.33
2023-03-03T06:50:46.288Z,47.45
2023-03-03T06:53:18.146Z,43.65
2023-03-03T06:55:48.049Z,43.10
2023-03-03T06:58:20.227Z,46.93
2023-03-03T07:01:00.498Z,42.60
2023-03-03T07:03:34.993Z,39.80
2023-03-03T07:06:07.950Z,44.20
2023-03-03T07:08:38.556Z,38.23
2023-03-03T07:11:11.574Z,35.93
2023-03-03T07:13:44.456Z,36.60
2023-03-03T07:16:17.477Z,32.50
2023-03-03T07:19:06.379Z,37.37
2023-03-03T07:21:38.898Z,30.95
2023-03-03T07:24:28.580Z,28.92
2023-03-03T07:27:03.661Z,26.68
2023-03-03T07:29:35.621Z,26.50
2023-03-03T07:32:22.356Z,26.48
2023-03-03T07:34:55.422Z,32.73
2023-03-03T07:37:38.455Z,27.58
2023-03-03T07:40:27.828Z,28.90
2023-03-03T07:42:57.647Z,25.20
2023-03-03T07:45:35.112Z,31.73
2023-03-03T07:48:09.267Z,33.08
2023-03-03T07:50:40.545Z,29.63
2023-03-03T07:53:13.423Z,27.77
2023-03-03T07:55:43.377Z,32.00
2023-03-03T07:58:17.183Z,27.03
2023-03-03T08:01:07.816Z,28.43
2023-03-03T08:03:38.015Z,27.37
2023-03-03T08:06:13.374Z,27.78
2023-03-03T08:08:44.572Z,25.40
2023-03-03T08:11:14.411Z,29.43
2023-03-03T08:13:46.527Z,25.50
2023-03-03T08:16:19.391Z,26.05
2023-03-03T08:18:51.384Z,23.97
2023-03-03T08:21:23.957Z,26.67
2023-03-03T08:23:54.383Z,29.13
2023-03-03T08:26:25.526Z,24.15
2023-03-03T08:28:56.013Z,24.77
2023-03-03T08:31:40.403Z,22.25
2023-03-03T08:33:59.031Z,24.37
2023-03-03T08:36:28.493Z,24.02
2023-03-03T08:38:58.427Z,27.17
2023-03-03T08:41:28.248Z,27.27
2023-03-03T08:43:58.092Z,25.07
2023-03-03T08:46:28.811Z,27.23
2023-03-03T08:48:58.908Z,22.15
2023-03-03T08:51:29.360Z,23.67
2023-03-03T08:53:59.334Z,26.73
2023-03-03T08:56:29.216Z,30.02
2023-03-03T08:59:02.445Z,25.77
2023-03-03T09:01:32.781Z,27.93
2023-03-03T09:04:02.764Z,28.70
2023-03-03T09:06:32.566Z,29.13
2023-03-03T09:09:02.878Z,27.37
2023-03-03T09:11:32.766Z,28.40
2023-03-03T09:14:14.363Z,25.68
2023-03-03T09:16:47.249Z,20.90
2023-03-03T09:19:22.803Z,21.40
2023-03-03T09:21:57.394Z,24.70
2023-03-03T09:24:29.176Z,18.93
2023-03-03T09:27:00.279Z,26.30
2023-03-03T09:29:32.654Z,18.80
2023-03-03T09:32:05.872Z,21.47
2023-03-03T09:34:43.387Z,20.47
2023-03-03T09:37:25.051Z,21.25
2023-03-03T09:39:57.538Z,22.73
2023-03-03T09:42:43.057Z,23.52
2023-03-03T09:45:44.983Z,21.70
2023-03-03T09:48:23.425Z,19.20
2023-03-03T09:51:05.235Z,21.67
2023-03-03T09:53:46.285Z,21.13
2023-03-03T09:56:19.189Z,18.60
2023-03-03T09:59:08.011Z,16.25
2023-03-03T10:01:52.301Z,20.20
2023-03-03T10:04:50.252Z,15.72
2023-03-03T10:07:38.017Z,16.70
2023-03-03T10:10:39.479Z,14.57
2023-03-03T10:13:45.644Z,13.03
2023-03-03T10:16:38.548Z,18.85
2023-03-03T10:19:14.338Z,16.13
2023-03-03T10:21:47.517Z,19.62
2023-03-03T10:24:26.315Z,13.50
2023-03-03T10:27:14.518Z,15.17
2023-03-03T10:29:59.392Z,13.60
2023-03-03T10:32:48.852Z,12.45
2023-03-03T10:35:33.186Z,16.77
2023-03-03T10:38:15.245Z,14.83
2023-03-03T10:40:50.482Z,15.90
2023-03-03T10:43:46.041Z,13.28
2023-03-03T10:46:25.242Z,13.66
2023-03-03T10:49:20.068Z,11.80
2023-03-03T10:52:07.563Z,12.13
2023-03-03T10:54:52.408Z,14.80
2023-03-03T10:57:44.500Z,19.53
2023-03-03T11:00:32.356Z,11.77
2023-03-03T11:03:29.268Z,14.97
2023-03-03T11:06:04.674Z,11.25
2023-03-03T11:08:37.330Z,15.67
2023-03-03T11:11:22.016Z,13.40
2023-03-03T11:13:57.754Z,12.10
2023-03-03T11:16:41.532Z,12.03
2023-03-03T11:19:36.912Z,12.13
2023-03-03T11:22:18.380Z,12.73
2023-03-03T11:25:05.859Z,15.93
2023-03-03T11:27:39.264Z,10.08
2023-03-03T11:30:16.786Z,10.63
2023-03-03T11:33:05.199Z,12.10
2023-03-03T11:35:49.885Z,12.53
2023-03-03T11:38:28.655Z,11.10
2023-03-03T11:41:16.301Z,11.77
2023-03-03T11:43:49.479Z,9.93
2023-03-03T11:46:34.073Z,10.13
2023-03-03T11:49:25.283Z,8.93
2023-03-03T11:52:09.869Z,9.93
2023-03-03T11:54:52.029Z,11.33
2023-03-03T11:57:33.886Z,11.40
2023-03-03T12:00:21.800Z,9.83
2023-03-03T12:03:10.985Z,10.63
2023-03-03T12:05:49.238Z,7.30
2023-03-03T12:08:41.344Z,8.63
2023-03-03T12:11:35.549Z,9.43
2023-03-03T12:14:25.167Z,9.37
2023-03-03T12:17:03.854Z,8.57
2023-03-03T12:19:44.948Z,8.73
2023-03-03T12:22:29.756Z,12.60
2023-03-03T12:25:22.189Z,12.37
2023-03-03T12:28:05.235Z,10.55
2023-03-03T12:30:38.021Z,6.20
2023-03-03T12:33:40.451Z,6.53
2023-03-03T12:36:38.322Z,6.76
2023-03-03T12:42:17.540Z,9.03
2023-03-03T12:45:11.190Z,6.13
2023-03-03T12:48:03.853Z,7.67
2023-03-03T12:50:36.483Z,21.60
2023-03-03T12:56:02.336Z,12.28
2023-03-03T12:58:55.773Z,8.93
2023-03-03T13:02:02.997Z,6.90
2023-03-03T13:04:53.291Z,7.60
2023-03-03T13:07:45.925Z,4.50
2023-03-03T13:10:23.866Z,5.47
2023-03-03T13:13:27.059Z,5.47
2023-03-03T13:16:03.073Z,6.63
2023-03-03T13:21:42.959Z,4.85
2023-03-03T13:24:20.869Z,6.72
2023-03-03T13:26:53.816Z,5.93
2023-03-03T13:29:32.346Z,8.67
2023-03-03T13:32:13.853Z,4.63
2023-03-03T13:34:46.722Z,4.87
2023-03-03T13:37:25.485Z,4.83
2023-03-03T13:39:58.051Z,4.20
2023-03-03T13:42:42.947Z,5.75
2023-03-03T13:45:24.935Z,5.35
2023-03-03T13:47:58.139Z,3.72
2023-03-03T13:50:51.604Z,4.35
2023-03-03T13:53:30.059Z,5.80
2023-03-03T13:56:02.895Z,4.37
2023-03-03T13:58:52.584Z,3.63
2023-03-03T14:01:28.869Z,5.20
2023-03-03T14:04:25.562Z,4.55
2023-03-03T14:06:56.019Z,2.90
2023-03-03T14:12:41.324Z,4.30
2023-03-03T14:15:31.728Z,3.07
2023-03-03T14:18:16.883Z,3.37
2023-03-03T14:20:54.380Z,4.20
2023-03-03T14:23:30.517Z,3.87
2023-03-03T14:26:11.568Z,3.67
2023-03-03T14:28:45.165Z,5.85
2023-03-03T14:31:23.540Z,4.93
2023-03-03T14:34:05.625Z,2.83
2023-03-03T14:36:38.499Z,5.83
2023-03-03T14:39:29.040Z,5.47
2023-03-03T14:41:59.397Z,4.60
2023-03-03T14:44:34.020Z,4.30
2023-03-03T14:47:29.042Z,3.70
2023-03-03T14:50:03.721Z,3.42
2023-03-03T14:52:35.838Z,4.15
2023-03-03T14:55:10.501Z,4.75
2023-03-03T14:57:47.021Z,4.10
2023-03-03T15:00:22.824Z,5.87
2023-03-03T15:03:06.585Z,7.33
2023-03-03T15:05:36.561Z,6.13
2023-03-03T15:08:09.665Z,4.80
2023-03-03T15:10:46.733Z,3.70
2023-03-03T15:13:29.208Z,5.03
2023-03-03T15:16:05.235Z,4.70
2023-03-03T15:18:35.564Z,4.92
2023-03-03T15:21:20.240Z,7.40
2023-03-03T15:23:59.297Z,5.67
2023-03-03T15:26:50.089Z,6.08
2023-03-03T15:29:35.248Z,6.87
2023-03-03T15:32:24.512Z,4.50
2023-03-03T15:34:59.320Z,2.92
2023-03-03T15:37:39.039Z,5.30
2023-03-03T15:40:19.329Z,2.27
2023-03-03T15:42:58.257Z,2.37
2023-03-03T15:45:48.233Z,2.93
2023-03-03T15:48:45.089Z,6.90
2023-03-03T15:53:56.247Z,3.40
2023-03-03T15:56:49.754Z,2.00
2023-03-03T15:59:47.918Z,4.42
2023-03-03T16:02:26.673Z,4.90
2023-03-03T16:05:17.440Z,5.47
2023-03-03T16:08:08.262Z,4.20
2023-03-03T16:11:06.595Z,3.43
2023-03-03T16:16:57.939Z,6.97
2023-03-03T16:19:47.116Z,3.85
2023-03-03T16:22:33.508Z,6.53
2023-03-03T16:25:09.083Z,4.62
2023-03-03T16:28:02.558Z,5.20
2023-03-03T16:30:59.021Z,2.77
2023-03-03T16:33:41.614Z,3.80
2023-03-03T16:36:19.775Z,3.75
2023-03-03T16:39:12.786Z,2.93
2023-03-03T16:41:45.657Z,3.80
2023-03-03T16:44:20.320Z,4.97
2023-03-03T16:46:53.369Z,4.37
2023-03-03T16:49:31.377Z,2.73
2023-03-03T16:52:16.119Z,2.00
2023-03-03T16:54:50.898Z,2.47
2023-03-03T16:57:35.480Z,4.07
2023-03-03T17:03:06.052Z,3.50
2023-03-03T17:05:44.788Z,6.30
2023-03-03T17:08:30.102Z,3.60
2023-03-03T17:11:28.392Z,8.03
2023-03-03T17:14:01.544Z,3.40
2023-03-03T17:16:52.677Z,3.27
2023-03-03T17:19:41.643Z,3.80
2023-03-03T17:22:17.261Z,2.80
2023-03-03T17:25:08.342Z,4.22
2023-03-03T17:27:47.047Z,3.52
2023-03-03T17:30:37.814Z,3.12
2023-03-03T17:33:12.510Z,2.87
2023-03-03T17:35:59.920Z,9.10
2023-03-03T17:39:01.437Z,4.50
2023-03-03T17:41:37.123Z,5.77
2023-03-03T17:44:25.020Z,6.60
2023-03-03T17:47:02.982Z,5.47
2023-03-03T17:49:47.406Z,3.15
2023-03-03T17:52:34.741Z,2.97
2023-03-03T17:55:29.442Z,6.85
2023-03-03T17:58:08.899Z,3.00
2023-03-03T18:01:03.768Z,4.63
2023-03-03T18:03:39.439Z,4.15
2023-03-03T18:06:17.792Z,6.77
2023-03-03T18:09:14.451Z,4.00
2023-03-03T18:11:45.879Z,4.53
2023-03-03T18:14:21.491Z,5.10
2023-03-03T18:17:02.939Z,6.43
2023-03-03T18:20:01.378Z,6.80
2023-03-03T18:22:34.696Z,3.77
2023-03-03T18:25:24.307Z,5.53
2023-03-03T18:28:05.916Z,4.07
2023-03-03T18:30:55.246Z,6.53
2023-03-03T18:33:46.251Z,4.95
2023-03-03T18:36:31.958Z,6.30
2023-03-03T18:39:05.043Z,7.87
2023-03-03T18:41:37.539Z,4.77
2023-03-03T18:44:28.385Z,5.37
2023-03-03T18:46:58.928Z,7.80
2023-03-03T18:49:57.610Z,5.95
2023-03-03T18:52:30.634Z,5.28
2023-03-03T18:55:12.270Z,4.65
2023-03-03T18:57:47.116Z,5.72
2023-03-03T19:00:20.249Z,4.85
2023-03-03T19:02:55.945Z,7.05
2023-03-03T19:05:40.252Z,8.10
2023-03-03T19:08:19.345Z,4.95
2023-03-03T19:11:02.970Z,10.35
2023-03-03T19:13:38.226Z,9.47
2023-03-03T19:16:31.973Z,8.48
2023-03-03T19:19:04.627Z,8.73
2023-03-03T19:21:39.426Z,10.47
2023-03-03T19:24:28.527Z,10.57
2023-03-03T19:27:16.299Z,8.48
2023-03-03T19:29:49.257Z,4.37
2023-03-03T19:32:38.007Z,15.96
2023-03-03T19:35:37.817Z,10.50
2023-03-03T19:38:34.581Z,12.40
2023-03-03T19:41:25.013Z,7.43
2023-03-03T19:44:27.584Z,15.37
2023-03-03T19:47:06.400Z,12.07
2023-03-03T19:49:55.708Z,20.30
2023-03-03T19:52:43.435Z,10.17
2023-03-03T19:55:38.433Z,22.22
2023-03-03T19:58:30.984Z,20.67
2023-03-03T20:01:25.524Z,16.13
2023-03-03T20:04:25.193Z,15.03
2023-03-03T20:07:17.026Z,20.55
2023-03-03T20:09:58.839Z,17.40
2023-03-03T20:12:53.942Z,19.13
2023-03-03T20:15:46.767Z,18.13
2023-03-03T20:18:39.173Z,21.20
2023-03-03T20:21:20.922Z,12.97
2023-03-03T20:24:20.255Z,14.83
2023-03-03T20:27:16.720Z,15.85
2023-03-03T20:30:19.248Z,15.23
2023-03-03T20:32:57.914Z,11.17
2023-03-03T20:35:42.558Z,16.53
2023-03-03T20:38:33.418Z,20.50
2023-03-03T20:41:25.460Z,16.73
2023-03-03T20:44:12.255Z,21.00
2023-03-03T20:46:56.966Z,13.07
2023-03-03T20:49:41.691Z,22.77
2023-03-03T20:52:32.819Z,21.50
2023-03-03T20:55:14.304Z,13.45
2023-03-03T20:57:56.204Z,17.17
2023-03-03T21:00:31.245Z,16.83
2023-03-03T21:03:06.822Z,15.90
2023-03-03T21:05:38.228Z,13.30
2023-03-03T21:08:08.166Z,24.97
2023-03-03T21:10:42.211Z,12.87
2023-03-03T21:13:39.034Z,21.97
2023-03-03T21:16:17.068Z,18.00
2023-03-03T21:19:05.667Z,23.50
2023-03-03T21:21:37.993Z,16.87
2023-03-03T21:24:08.885Z,15.13
2023-03-03T21:26:58.898Z,19.70
2023-03-03T21:29:34.553Z,21.93
2023-03-03T21:32:11.628Z,13.80
2023-03-03T21:34:43.484Z,14.25
2023-03-03T21:37:15.931Z,24.27
2023-03-03T21:39:46.154Z,17.90
2023-03-03T21:42:20.485Z,15.53
2023-03-03T21:44:51.757Z,12.53
2023-03-03T21:47:24.326Z,13.95
2023-03-03T21:49:54.130Z,22.07
2023-03-03T21:52:23.947Z,21.47
2023-03-03T21:54:53.837Z,18.40
2023-03-03T21:57:25.141Z,23.80
2023-03-03T21:59:55.247Z,24.02
2023-03-03T22:02:25.005Z,18.50
2023-03-03T22:04:54.599Z,17.17
2023-03-03T22:07:24.681Z,20.50
2023-03-03T22:09:54.582Z,22.10
2023-03-03T22:12:24.344Z,16.97
2023-03-03T22:14:54.105Z,20.33
2023-03-03T22:17:25.474Z,21.07
2023-03-03T22:19:55.816Z,15.68
2023-03-03T22:22:25.575Z,19.87
2023-03-03T22:24:55.410Z,16.00
2023-03-03T22:27:25.158Z,19.30
2023-03-03T22:29:54.986Z,17.70
2023-03-03T22:32:24.815Z,24.12
2023-03-03T22:34:54.676Z,23.50
2023-03-03T22:37:24.431Z,24.33
2023-03-03T22:39:54.516Z,17.20
2023-03-03T22:42:25.047Z,14.93
2023-03-03T22:44:54.809Z,17.63
2023-03-03T22:47:24.651Z,18.73
2023-03-03T22:49:54.405Z,24.27
2023-03-03T22:52:24.213Z,22.85
2023-03-03T22:54:54.368Z,20.55
2023-03-03T22:57:24.486Z,25.17
2023-03-03T22:59:54.532Z,16.73
2023-03-03T23:02:24.328Z,15.30
2023-03-03T23:04:56.115Z,18.77
2023-03-03T23:07:26.455Z,16.37
2023-03-03T23:09:57.225Z,24.90
2023-03-03T23:12:27.243Z,22.17
2023-03-03T23:14:57.305Z,17.60
2023-03-03T23:17:27.448Z,13.73
2023-03-03T23:19:57.190Z,24.53
2023-03-03T23:22:27.209Z,18.92
2023-03-03T23:24:57.013Z,18.20
2023-03-03T23:27:26.636Z,18.25
2023-03-03T23:29:56.522Z,19.37
2023-03-03T23:32:26.576Z,16.15
2023-03-03T23:34:56.386Z,27.13
2023-03-03T23:37:26.214Z,16.27
2023-03-03T23:39:55.757Z,11.90
2023-03-03T23:42:29.830Z,17.02
2023-03-03T23:44:59.893Z,16.48
2023-03-03T23:47:29.708Z,15.27
2023-03-03T23:49:59.838Z,14.17
2023-03-03T23:52:29.740Z,18.95
2023-03-03T23:54:59.603Z,19.03
2023-03-03T23:57:29.560Z,16.13
2023-03-03T23:59:59.364Z,13.20
